createdAt,value
2023-03-10T00:00:00.575Z,99089.28
2023-03-10T00:02:30.457Z,99088.22
2023-03-10T00:04:57.085Z,99079.13
2023-03-10T00:07:23.526Z,99072.22
2023-03-10T00:09:49.925Z,99066.13
2023-03-10T00:12:16.328Z,99065.84
2023-03-10T00:14:42.795Z,99070.03
2023-03-10T00:17:09.242Z,99068.09
2023-03-10T00:19:35.656Z,99059.25
2023-03-10T00:22:04.777Z,99059.00
2023-03-10T00:24:31.191Z,99056.00
2023-03-10T00:26:57.908Z,99046.56
2023-03-10T00:29:26.217Z,99042.44
2023-03-10T00:31:53.573Z,99035.56
2023-03-10T00:34:19.997Z,99036.16
2023-03-10T00:36:46.396Z,99027.88
2023-03-10T00:39:13.303Z,99018.47
2023-03-10T00:41:39.697Z,99017.41
2023-03-10T00:44:09.372Z,99016.28
2023-03-10T00:46:38.416Z,99016.00
2023-03-10T00:49:06.413Z,99018.22
2023-03-10T00:51:32.939Z,99002.75
2023-03-10T00:54:01.038Z,98989.53
2023-03-10T00:56:28.518Z,98986.50
2023-03-10T00:58:57.146Z,98980.41
2023-03-10T01:01:29.960Z,98967.72
2023-03-10T01:03:59.811Z,98957.78
2023-03-10T01:06:26.463Z,98956.16
2023-03-10T01:08:53.693Z,98934.66
2023-03-10T01:11:23.545Z,98924.19
2023-03-10T01:13:50.705Z,98938.00
2023-03-10T01:16:17.154Z,98918.13
2023-03-10T01:18:43.905Z,98919.78
2023-03-10T01:21:16.470Z,98915.13
2023-03-10T01:23:42.887Z,98905.75
2023-03-10T01:26:09.294Z,98903.25
2023-03-10T01:28:35.771Z,98907.94
2023-03-10T01:31:04.921Z,98901.88
2023-03-10T01:33:31.355Z,98888.91
2023-03-10T01:35:58.621Z,98889.22
2023-03-10T01:38:25.080Z,98881.50
2023-03-10T01:40:51.580Z,98877.34
2023-03-10T01:43:20.917Z,98866.56
2023-03-10T01:45:47.575Z,98866.31
2023-03-10T01:48:16.956Z,98863.56
2023-03-10T01:50:46.487Z,98855.56
2023-03-10T01:53:15.969Z,98845.38
2023-03-10T01:55:48.374Z,98841.22
2023-03-10T01:58:16.803Z,98836.56
2023-03-10T02:00:43.869Z,98827.19
2023-03-10T02:03:18.031Z,98818.63
2023-03-10T02:06:19.427Z,98812.28
2023-03-10T02:08:47.599Z,98802.63
2023-03-10T02:11:16.294Z,98807.34
2023-03-10T02:13:42.952Z,98790.25
2023-03-10T02:16:10.028Z,98775.63
2023-03-10T02:18:36.565Z,98770.38
2023-03-10T02:21:22.003Z,98768.19
2023-03-10T02:24:01.603Z,98755.50
2023-03-10T02:26:40.228Z,98747.81
2023-03-10T02:29:10.479Z,98752.75
2023-03-10T02:31:37.554Z,98740.88
2023-03-10T02:34:06.659Z,98728.50
2023-03-10T02:36:33.133Z,98728.22
2023-03-10T02:38:59.596Z,98711.94
2023-03-10T02:41:33.638Z,98716.94
2023-03-10T02:44:04.332Z,98699.28
2023-03-10T02:46:30.990Z,98697.09
2023-03-10T02:49:02.317Z,98691.00
2023-03-10T02:51:42.863Z,98695.69
2023-03-10T02:54:13.326Z,98703.66
2023-03-10T02:56:42.356Z,98695.94
2023-03-10T02:59:10.490Z,98696.50
2023-03-10T03:01:41.342Z,98688.78
2023-03-10T03:04:07.866Z,98680.78
2023-03-10T03:06:35.299Z,98667.25
2023-03-10T03:09:02.067Z,98663.69
2023-03-10T03:11:30.086Z,98644.94
2023-03-10T03:13:56.608Z,98641.13
2023-03-10T03:16:24.574Z,98647.44
2023-03-10T03:18:55.174Z,98640.56
2023-03-10T03:21:23.313Z,98633.94
2023-03-10T03:23:50.007Z,98631.19
2023-03-10T03:26:22.267Z,98626.75
2023-03-10T03:28:52.124Z,98623.19
2023-03-10T03:31:24.565Z,98619.31
2023-03-10T03:33:57.311Z,98614.34
2023-03-10T03:36:24.433Z,98610.22
2023-03-10T03:38:51.290Z,98608.56
2023-03-10T03:41:18.114Z,98601.38
2023-03-10T03:43:44.637Z,98598.88
2023-03-10T03:46:11.658Z,98588.38
2023-03-10T03:48:38.564Z,98592.22
2023-03-10T03:51:08.255Z,98583.38
2023-03-10T03:53:39.321Z,98573.22
2023-03-10T03:56:05.971Z,98568.78
2023-03-10T03:58:34.947Z,98569.06
2023-03-10T04:01:01.485Z,98566.81
2023-03-10T04:03:32.128Z,98564.06
2023-03-10T04:05:58.883Z,98556.38
2023-03-10T04:08:25.796Z,98554.97
2023-03-10T04:10:55.419Z,98546.44
2023-03-10T04:13:25.550Z,98549.16
2023-03-10T04:15:59.492Z,98552.16
2023-03-10T04:18:31.324Z,98545.50
2023-03-10T04:20:58.317Z,98546.59
2023-03-10T04:23:25.277Z,98532.03
2023-03-10T04:25:52.173Z,98538.06
2023-03-10T04:28:18.686Z,98539.19
2023-03-10T04:30:48.239Z,98537.53
2023-03-10T04:33:16.829Z,98545.75
2023-03-10T04:35:47.600Z,98540.78
2023-03-10T04:38:15.410Z,98532.03
2023-03-10T04:40:42.086Z,98527.91
2023-03-10T04:43:09.146Z,98519.91
2023-03-10T04:45:35.820Z,98520.13
2023-03-10T04:48:02.935Z,98499.78
2023-03-10T04:50:29.457Z,98500.06
2023-03-10T04:52:56.402Z,98496.78
2023-03-10T04:55:26.665Z,98485.19
2023-03-10T04:57:53.124Z,98481.88
2023-03-10T05:00:20.070Z,98484.06
2023-03-10T05:02:46.572Z,98477.13
2023-03-10T05:05:13.325Z,98471.28
2023-03-10T05:07:43.710Z,98466.94
2023-03-10T05:10:10.866Z,98464.75
2023-03-10T05:12:42.128Z,98465.25
2023-03-10T05:15:10.244Z,98462.22
2023-03-10T05:17:36.882Z,98452.88
2023-03-10T05:20:04.950Z,98452.81
2023-03-10T05:22:31.495Z,98454.88
2023-03-10T05:24:57.933Z,98446.38
2023-03-10T05:27:24.633Z,98443.22
2023-03-10T05:29:51.078Z,98436.88
2023-03-10T05:32:24.022Z,98429.91
2023-03-10T05:34:50.448Z,98434.13
2023-03-10T05:37:18.289Z,98428.50
2023-03-10T05:39:44.877Z,98438.88
2023-03-10T05:42:16.528Z,98431.69
2023-03-10T05:44:43.012Z,98433.59
2023-03-10T05:47:09.525Z,98431.88
2023-03-10T05:49:38.609Z,98426.91
2023-03-10T05:52:06.109Z,98425.28
2023-03-10T05:54:33.010Z,98421.31
2023-03-10T05:56:59.531Z,98428.56
2023-03-10T05:59:27.943Z,98417.78
2023-03-10T06:01:55.010Z,98424.13
2023-03-10T06:04:21.454Z,98414.50
2023-03-10T06:06:47.949Z,98415.31
2023-03-10T06:09:14.343Z,98412.59
2023-03-10T06:11:40.729Z,98411.75
2023-03-10T06:14:07.123Z,98407.09
2023-03-10T06:16:33.581Z,98400.47
2023-03-10T06:19:00.037Z,98407.03
2023-03-10T06:21:28.232Z,98395.09
2023-03-10T06:23:54.778Z,98394.28
2023-03-10T06:26:22.798Z,98401.88
2023-03-10T06:28:49.196Z,98398.53
2023-03-10T06:31:18.643Z,98393.31
2023-03-10T06:33:45.446Z,98395.78
2023-03-10T06:36:12.924Z,98398.50
2023-03-10T06:38:40.112Z,98393.84
2023-03-10T06:41:06.991Z,98391.16
2023-03-10T06:43:33.815Z,98390.25
2023-03-10T06:46:04.399Z,98379.75
2023-03-10T06:48:30.869Z,98381.16
2023-03-10T06:50:57.267Z,98384.16
2023-03-10T06:53:23.702Z,98373.59
2023-03-10T06:56:01.989Z,98380.16
2023-03-10T06:58:30.174Z,98383.97
2023-03-10T07:00:56.784Z,98386.03
2023-03-10T07:03:25.959Z,98381.69
2023-03-10T07:05:52.978Z,98390.97
2023-03-10T07:08:19.415Z,98383.59
2023-03-10T07:10:45.857Z,98381.97
2023-03-10T07:13:15.484Z,98386.69
2023-03-10T07:15:42.209Z,98383.94
2023-03-10T07:18:08.611Z,98379.81
2023-03-10T07:20:35.505Z,98384.84
2023-03-10T07:23:01.898Z,98385.81
2023-03-10T07:25:28.300Z,98384.63
2023-03-10T07:27:54.701Z,98388.03
2023-03-10T07:30:21.277Z,98378.72
2023-03-10T07:32:47.691Z,98386.09
2023-03-10T07:35:14.129Z,98381.66
2023-03-10T07:37:40.798Z,98377.75
2023-03-10T07:40:08.482Z,98381.78
2023-03-10T07:42:35.172Z,98380.66
2023-03-10T07:45:02.046Z,98383.19
2023-03-10T07:47:28.436Z,98379.00
2023-03-10T07:49:54.841Z,98380.38
2023-03-10T07:52:21.341Z,98376.63
2023-03-10T07:54:47.830Z,98379.09
2023-03-10T07:57:15.103Z,98371.25
2023-03-10T07:59:42.008Z,98378.00
2023-03-10T08:02:12.603Z,98370.78
2023-03-10T08:04:39.372Z,98377.34
2023-03-10T08:07:05.935Z,98375.00
2023-03-10T08:09:33.002Z,98365.38
2023-03-10T08:11:59.778Z,98364.97
2023-03-10T08:14:28.658Z,98361.38
2023-03-10T08:16:56.617Z,98372.50
2023-03-10T08:19:27.413Z,98359.63
2023-03-10T08:21:55.973Z,98362.50
2023-03-10T08:24:22.458Z,98362.53
2023-03-10T08:26:48.862Z,98369.16
2023-03-10T08:29:15.270Z,98355.44
2023-03-10T08:31:41.812Z,98364.28
2023-03-10T08:34:08.603Z,98364.06
2023-03-10T08:36:35.412Z,98367.47
2023-03-10T08:39:02.195Z,98366.41
2023-03-10T08:41:36.178Z,98370.50
2023-03-10T08:44:03.894Z,98379.44
2023-03-10T08:46:32.029Z,98382.22
2023-03-10T08:48:59.496Z,98387.56
2023-03-10T08:51:27.116Z,98392.38
2023-03-10T08:53:54.024Z,98399.03
2023-03-10T08:56:22.255Z,98400.66
2023-03-10T08:58:48.713Z,98395.75
2023-03-10T09:01:16.838Z,98397.66
2023-03-10T09:03:44.426Z,98391.78
2023-03-10T09:06:11.041Z,98397.03
2023-03-10T09:08:37.450Z,98395.31
2023-03-10T09:11:04.046Z,98406.63
2023-03-10T09:13:30.467Z,98397.22
2023-03-10T09:15:56.991Z,98402.53
2023-03-10T09:18:23.516Z,98406.69
2023-03-10T09:20:50.322Z,98404.78
2023-03-10T09:23:16.848Z,98408.25
2023-03-10T09:25:43.310Z,98411.28
2023-03-10T09:28:11.529Z,98415.28
2023-03-10T09:30:40.827Z,98408.31
2023-03-10T09:33:16.803Z,98411.56
2023-03-10T09:35:52.552Z,98415.38
2023-03-10T09:38:19.424Z,98425.34
2023-03-10T09:41:13.823Z,98440.50
2023-03-10T09:43:50.323Z,98436.84
2023-03-10T09:46:28.954Z,98439.50
2023-03-10T09:49:25.789Z,98438.03
2023-03-10T09:51:52.404Z,98445.22
2023-03-10T09:54:39.096Z,98449.00
2023-03-10T09:57:20.836Z,98447.19
2023-03-10T09:59:50.512Z,98455.91
2023-03-10T10:02:30.563Z,98452.97
2023-03-10T10:05:03.256Z,98455.97
2023-03-10T10:07:42.675Z,98468.25
2023-03-10T10:10:24.619Z,98459.03
2023-03-10T10:12:52.504Z,98459.91
2023-03-10T10:15:22.581Z,98454.66
2023-03-10T10:18:33.919Z,98452.22
2023-03-10T10:21:10.555Z,98469.75
2023-03-10T10:23:52.251Z,98466.16
2023-03-10T10:26:21.015Z,98470.44
2023-03-10T10:28:55.600Z,98469.31
2023-03-10T10:31:25.226Z,98471.94
2023-03-10T10:33:57.893Z,98467.56
2023-03-10T10:36:27.364Z,98470.53
2023-03-10T10:38:55.399Z,98480.34
2023-03-10T10:41:26.115Z,98481.97
2023-03-10T10:43:56.367Z,98478.09
2023-03-10T10:46:29.651Z,98478.56
2023-03-10T10:49:26.717Z,98482.50
2023-03-10T10:52:18.158Z,98485.09
2023-03-10T10:54:54.126Z,98495.09
2023-03-10T10:57:23.103Z,98493.63
2023-03-10T10:59:49.539Z,98499.19
2023-03-10T11:02:30.996Z,98489.63
2023-03-10T11:05:18.325Z,98498.13
2023-03-10T11:07:45.281Z,98494.88
2023-03-10T11:10:16.996Z,98490.31
2023-03-10T11:13:05.683Z,98488.66
2023-03-10T11:15:39.553Z,98486.25
2023-03-10T11:18:23.374Z,98471.38
2023-03-10T11:21:07.019Z,98489.84
2023-03-10T11:23:52.343Z,98495.06
2023-03-10T11:26:31.141Z,98503.41
2023-03-10T11:29:14.730Z,98499.63
2023-03-10T11:32:08.160Z,98498.84
2023-03-10T11:34:45.739Z,98502.31
2023-03-10T11:37:40.868Z,98498.19
2023-03-10T11:40:23.550Z,98493.63
2023-03-10T11:42:56.501Z,98493.50
2023-03-10T11:45:54.717Z,98490.25
2023-03-10T11:48:29.677Z,98491.84
2023-03-10T11:50:59.257Z,98490.63
2023-03-10T11:53:33.220Z,98489.66
2023-03-10T11:56:01.694Z,98496.16
2023-03-10T11:58:54.888Z,98494.41
2023-03-10T12:01:30.948Z,98491.78
2023-03-10T12:04:06.480Z,98490.91
2023-03-10T12:06:44.639Z,98496.03
2023-03-10T12:09:25.292Z,98493.41
2023-03-10T12:11:52.938Z,98502.94
2023-03-10T12:14:19.997Z,98489.38
2023-03-10T12:16:47.552Z,98495.78
2023-03-10T12:19:13.976Z,98494.94
2023-03-10T12:21:40.477Z,98508.38
2023-03-10T12:24:47.062Z,98497.53
2023-03-10T12:27:13.480Z,98499.31
2023-03-10T12:29:42.271Z,98500.97
2023-03-10T12:32:38.618Z,98504.34
2023-03-10T12:35:29.202Z,98504.88
2023-03-10T12:38:33.405Z,98493.94
2023-03-10T12:41:01.375Z,98490.56
2023-03-10T12:43:43.044Z,98485.19
2023-03-10T12:46:12.502Z,98489.78
2023-03-10T12:48:47.597Z,98493.53
2023-03-10T12:51:20.428Z,98492.41
2023-03-10T12:54:14.798Z,98498.88
2023-03-10T12:56:57.315Z,98492.19
2023-03-10T12:59:43.959Z,98479.56
2023-03-10T13:02:31.914Z,98482.03
2023-03-10T13:05:06.751Z,98484.69
2023-03-10T13:07:35.306Z,98483.72
2023-03-10T13:10:03.434Z,98494.81
2023-03-10T13:12:46.371Z,98491.34
2023-03-10T13:15:26.066Z,98486.09
2023-03-10T13:17:55.166Z,98475.47
2023-03-10T13:20:22.981Z,98486.25
2023-03-10T13:22:54.638Z,98476.94
2023-03-10T13:25:21.172Z,98487.56
2023-03-10T13:27:47.573Z,98491.97
2023-03-10T13:30:19.929Z,98491.66
2023-03-10T13:32:58.380Z,98483.00
2023-03-10T13:35:38.311Z,98482.81
2023-03-10T13:38:16.646Z,98472.84
2023-03-10T13:40:48.530Z,98478.84
2023-03-10T13:43:30.600Z,98480.16
2023-03-10T13:45:58.737Z,98485.94
2023-03-10T13:48:26.652Z,98483.47
2023-03-10T13:51:05.282Z,98485.25
2023-03-10T13:53:31.903Z,98488.53
2023-03-10T13:55:58.387Z,98487.28
2023-03-10T13:58:26.065Z,98484.13
2023-03-10T14:00:56.232Z,98487.56
2023-03-10T14:03:23.042Z,98493.78
2023-03-10T14:05:49.915Z,98493.78
2023-03-10T14:08:28.644Z,98493.09
2023-03-10T14:11:21.957Z,98485.25
2023-03-10T14:13:48.566Z,98483.28
2023-03-10T14:16:15.114Z,98477.88
2023-03-10T14:18:43.472Z,98470.53
2023-03-10T14:21:31.161Z,98464.47
2023-03-10T14:24:09.940Z,98466.91
2023-03-10T14:26:38.505Z,98464.72
2023-03-10T14:29:14.728Z,98461.41
2023-03-10T14:31:41.145Z,98469.75
2023-03-10T14:34:12.452Z,98469.44
2023-03-10T14:36:39.963Z,98462.25
2023-03-10T14:39:09.381Z,98466.19
2023-03-10T14:41:36.139Z,98465.56
2023-03-10T14:44:02.890Z,98458.97
2023-03-10T14:46:30.081Z,98466.28
2023-03-10T14:48:56.597Z,98456.66
2023-03-10T14:51:35.095Z,98459.56
2023-03-10T14:54:02.710Z,98471.38
2023-03-10T14:56:30.128Z,98473.63
2023-03-10T14:58:58.274Z,98467.22
2023-03-10T15:01:24.792Z,98463.28
2023-03-10T15:03:51.444Z,98452.00
2023-03-10T15:06:19.648Z,98466.53
2023-03-10T15:08:46.079Z,98462.53
2023-03-10T15:11:12.602Z,98461.31
2023-03-10T15:13:39.467Z,98462.31
2023-03-10T15:16:06.740Z,98466.34
2023-03-10T15:18:33.212Z,98453.16
2023-03-10T15:21:00.490Z,98468.56
2023-03-10T15:23:28.653Z,98477.50
2023-03-10T15:25:55.973Z,98476.69
2023-03-10T15:28:23.044Z,98480.28
2023-03-10T15:30:49.892Z,98482.00
2023-03-10T15:33:16.708Z,98485.03
2023-03-10T15:35:43.481Z,98488.72
2023-03-10T15:38:13.953Z,98496.19
2023-03-10T15:40:40.730Z,98489.31
2023-03-10T15:43:07.454Z,98484.78
2023-03-10T15:45:34.045Z,98481.50
2023-03-10T15:48:00.473Z,98483.88
2023-03-10T15:50:27.480Z,98478.44
2023-03-10T15:52:56.634Z,98475.47
2023-03-10T15:55:23.917Z,98481.81
2023-03-10T15:57:51.266Z,98470.31
2023-03-10T16:00:19.141Z,98479.16
2023-03-10T16:02:46.769Z,98475.66
2023-03-10T16:05:13.655Z,98486.56
2023-03-10T16:07:40.062Z,98477.63
2023-03-10T16:10:08.768Z,98489.81
2023-03-10T16:12:35.164Z,98500.28
2023-03-10T16:15:01.554Z,98487.56
2023-03-10T16:17:29.185Z,98494.13
2023-03-10T16:19:55.600Z,98475.63
2023-03-10T16:22:22.031Z,98481.75
2023-03-10T16:24:48.426Z,98493.47
2023-03-10T16:27:15.745Z,98484.72
2023-03-10T16:29:42.152Z,98485.59
2023-03-10T16:32:08.982Z,98493.28
2023-03-10T16:34:35.943Z,98494.03
2023-03-10T16:37:02.597Z,98492.81
2023-03-10T16:39:32.724Z,98493.19
2023-03-10T16:41:59.352Z,98495.16
2023-03-10T16:44:26.143Z,98490.63
2023-03-10T16:46:52.567Z,98488.72
2023-03-10T16:49:19.072Z,98486.34
2023-03-10T16:51:47.543Z,98489.41
2023-03-10T16:54:17.140Z,98492.91
2023-03-10T16:56:46.305Z,98496.69
2023-03-10T16:59:18.764Z,98490.69
2023-03-10T17:01:45.770Z,98480.97
2023-03-10T17:04:12.703Z,98471.53
2023-03-10T17:06:39.543Z,98473.28
2023-03-10T17:09:08.867Z,98481.56
2023-03-10T17:11:40.772Z,98480.03
2023-03-10T17:14:10.653Z,98480.16
2023-03-10T17:16:37.665Z,98483.75
2023-03-10T17:19:06.889Z,98488.31
2023-03-10T17:21:35.991Z,98489.44
2023-03-10T17:24:03.831Z,98519.66
2023-03-10T17:26:30.613Z,98513.03
2023-03-10T17:28:57.430Z,98507.22
2023-03-10T17:31:26.254Z,98502.72
2023-03-10T17:33:55.394Z,98512.97
2023-03-10T17:36:22.073Z,98510.69
2023-03-10T17:38:48.502Z,98507.69
2023-03-10T17:41:16.161Z,98507.03
2023-03-10T17:43:42.876Z,98503.78
2023-03-10T17:46:21.384Z,98499.31
2023-03-10T17:48:48.242Z,98485.69
2023-03-10T17:51:26.135Z,98486.31
2023-03-10T17:53:53.195Z,98480.53
2023-03-10T17:56:21.865Z,98480.38
2023-03-10T17:58:49.597Z,98477.69
2023-03-10T18:01:19.347Z,98479.94
2023-03-10T18:03:48.206Z,98487.03
2023-03-10T18:06:23.796Z,98478.53
2023-03-10T18:08:51.106Z,98483.47
2023-03-10T18:11:19.889Z,98473.34
2023-03-10T18:13:46.609Z,98480.97
2023-03-10T18:16:21.773Z,98481.97
2023-03-10T18:18:49.482Z,98478.53
2023-03-10T18:21:17.702Z,98478.88
2023-03-10T18:23:45.396Z,98471.78
2023-03-10T18:26:14.840Z,98474.59
2023-03-10T18:28:42.011Z,98465.03
2023-03-10T18:31:17.237Z,98460.69
2023-03-10T18:33:43.709Z,98463.25
2023-03-10T18:36:13.584Z,98463.78
2023-03-10T18:38:40.637Z,98455.53
2023-03-10T18:41:07.120Z,98461.34
2023-03-10T18:43:34.184Z,98465.78
2023-03-10T18:46:01.353Z,98480.81
2023-03-10T18:48:28.644Z,98471.59
2023-03-10T18:50:56.514Z,98479.72
2023-03-10T18:53:24.118Z,98477.25
2023-03-10T18:55:50.604Z,98471.22
2023-03-10T18:58:17.013Z,98465.09
2023-03-10T19:00:43.389Z,98458.78
2023-03-10T19:03:12.875Z,98457.16
2023-03-10T19:05:40.312Z,98450.28
2023-03-10T19:08:07.156Z,98452.50
2023-03-10T19:10:33.594Z,98450.06
2023-03-10T19:13:00.035Z,98452.09
2023-03-10T19:15:26.497Z,98442.22
2023-03-10T19:17:53.019Z,98439.22
2023-03-10T19:20:19.412Z,98444.56
2023-03-10T19:22:49.565Z,98442.56
2023-03-10T19:25:16.603Z,98455.56
2023-03-10T19:27:43.203Z,98447.69
2023-03-10T19:30:12.795Z,98447.63
2023-03-10T19:32:39.737Z,98431.13
2023-03-10T19:35:08.699Z,98435.28
2023-03-10T19:37:36.202Z,98434.84
2023-03-10T19:40:06.032Z,98432.22
2023-03-10T19:42:34.106Z,98431.50
2023-03-10T19:45:01.083Z,98425.53
2023-03-10T19:47:30.478Z,98419.69
2023-03-10T19:49:56.874Z,98430.41
2023-03-10T19:52:23.914Z,98425.75
2023-03-10T19:54:51.214Z,98424.19
2023-03-10T19:57:17.626Z,98427.09
2023-03-10T19:59:44.047Z,98421.81
2023-03-10T20:02:14.979Z,98419.53
2023-03-10T20:04:41.752Z,98419.41
2023-03-10T20:07:08.175Z,98415.34
2023-03-10T20:09:34.697Z,98419.56
2023-03-10T20:12:01.149Z,98416.31
2023-03-10T20:14:27.692Z,98409.38
2023-03-10T20:16:54.332Z,98412.19
2023-03-10T20:19:22.737Z,98400.59
2023-03-10T20:21:50.416Z,98405.84
2023-03-10T20:24:17.808Z,98404.28
2023-03-10T20:26:44.459Z,98398.06
2023-03-10T20:29:11.549Z,98401.75
2023-03-10T20:31:38.080Z,98402.56
2023-03-10T20:34:05.874Z,98400.03
2023-03-10T20:36:32.581Z,98390.09
2023-03-10T20:38:59.440Z,98394.16
2023-03-10T20:41:25.880Z,98393.19
2023-03-10T20:43:53.402Z,98395.19
2023-03-10T20:46:19.986Z,98396.59
2023-03-10T20:48:49.827Z,98400.84
2023-03-10T20:51:18.689Z,98399.94
2023-03-10T20:53:45.480Z,98403.59
2023-03-10T20:56:12.234Z,98394.19
2023-03-10T20:58:38.775Z,98396.53
2023-03-10T21:01:05.338Z,98387.41
2023-03-10T21:03:31.927Z,98391.03
2023-03-10T21:05:58.333Z,98392.50
2023-03-10T21:08:24.767Z,98390.53
2023-03-10T21:10:51.634Z,98392.47
2023-03-10T21:13:18.051Z,98388.00
2023-03-10T21:15:44.451Z,98393.91
2023-03-10T21:18:10.877Z,98389.56
2023-03-10T21:20:37.278Z,98390.06
2023-03-10T21:23:03.706Z,98382.09
2023-03-10T21:25:30.166Z,98381.31
2023-03-10T21:27:58.679Z,98371.47
2023-03-10T21:30:30.589Z,98369.53
2023-03-10T21:32:58.087Z,98365.63
2023-03-10T21:35:30.377Z,98378.84
2023-03-10T21:37:57.315Z,98382.09
2023-03-10T21:40:24.310Z,98385.97
2023-03-10T21:42:51.127Z,98389.72
2023-03-10T21:45:20.541Z,98399.81
2023-03-10T21:47:47.455Z,98386.31
2023-03-10T21:50:14.928Z,98388.72
2023-03-10T21:52:42.051Z,98386.38
2023-03-10T21:55:13.329Z,98380.19
2023-03-10T21:57:39.785Z,98380.97
2023-03-10T22:00:09.287Z,98375.38
2023-03-10T22:02:37.019Z,98373.06
2023-03-10T22:05:06.052Z,98368.06
2023-03-10T22:07:33.236Z,98359.81
2023-03-10T22:09:59.859Z,98360.34
2023-03-10T22:12:26.329Z,98358.19
2023-03-10T22:14:56.300Z,98356.16
2023-03-10T22:17:24.641Z,98364.78
2023-03-10T22:19:54.624Z,98360.91
2023-03-10T22:22:22.021Z,98366.13
2023-03-10T22:24:48.757Z,98363.59
2023-03-10T22:27:15.750Z,98370.88
2023-03-10T22:29:42.154Z,98366.03
2023-03-10T22:32:08.648Z,98370.19
2023-03-10T22:34:35.101Z,98380.34
2023-03-10T22:37:01.508Z,98368.78
2023-03-10T22:39:27.928Z,98360.44
2023-03-10T22:41:54.380Z,98373.22
2023-03-10T22:44:20.907Z,98376.50
2023-03-10T22:46:47.502Z,98374.56
2023-03-10T22:49:14.740Z,98378.41
2023-03-10T22:51:41.216Z,98372.75
2023-03-10T22:54:07.730Z,98376.25
2023-03-10T22:56:34.170Z,98382.78
2023-03-10T22:59:03.771Z,98375.97
2023-03-10T23:01:30.420Z,98388.59
2023-03-10T23:03:56.872Z,98394.59
2023-03-10T23:06:24.471Z,98388.09
2023-03-10T23:08:51.810Z,98391.13
2023-03-10T23:11:18.300Z,98401.25
2023-03-10T23:13:44.713Z,98399.81
2023-03-10T23:16:11.139Z,98406.31
2023-03-10T23:18:37.561Z,98412.00
2023-03-10T23:21:04.751Z,98412.28
2023-03-10T23:23:31.893Z,98418.16
2023-03-10T23:25:58.336Z,98425.69
2023-03-10T23:28:24.753Z,98434.84
2023-03-10T23:30:51.450Z,98437.09
2023-03-10T23:33:20.363Z,98443.56
2023-03-10T23:35:50.276Z,98454.34
2023-03-10T23:38:16.757Z,98463.28
2023-03-10T23:40:43.151Z,98472.38
2023-03-10T23:43:09.618Z,98481.75
2023-03-10T23:45:37.463Z,98499.97
2023-03-10T23:48:06.979Z,98503.59
2023-03-10T23:50:36.411Z,98517.69
2023-03-10T23:53:03.966Z,98530.69
2023-03-10T23:55:34.725Z,98545.13
2023-03-10T23:58:02.185Z,98542.38
